Auburn, Nebraska
Current Conditions -  °F | °C
As of 4:55 PM on Tuesday 21 Oct 2014 (Local Time) from KAFK Reporting Station
Clear Clear  
Wind Chill: 72°   Ceiling: Unl
Heat Index: 72°   Visibility: 10mi
Dew Point: 28°   Wind: 8mph
Humidity: 20%   Direction: 140°SE
Pressure: 30.05"   Gusts: NA
Location:  40.39°N, 95.84°W
Report Text: KAFK 212155Z AUTO 14007KT 10SM CLR 22/M02 A3005 RMK AO2 T02201021
Loading
Personal Weather Stations






























Interactive Weather Map New forecast layout! Learn more

10-Day Weather Forecast

Advertisements
Track Severe Weather on mobile